createdAt,value
2018-10-21T00:00:46.779Z,0
2018-10-21T00:01:46.718Z,0
2018-10-21T00:02:46.961Z,0
2018-10-21T00:03:47.201Z,0
2018-10-21T00:04:46.680Z,0
2018-10-21T00:05:46.664Z,0
2018-10-21T00:06:46.922Z,0
2018-10-21T00:07:46.657Z,0
2018-10-21T00:08:46.925Z,0
2018-10-21T00:09:46.915Z,0
2018-10-21T00:10:46.956Z,0
2018-10-21T00:11:46.926Z,0
2018-10-21T00:12:47.171Z,0
2018-10-21T00:13:46.894Z,0
2018-10-21T00:14:46.382Z,0
2018-10-21T00:15:46.574Z,0
2018-10-21T00:16:46.609Z,0
2018-10-21T00:17:47.436Z,0
2018-10-21T00:18:47.122Z,0
2018-10-21T00:19:46.366Z,0
2018-10-21T00:20:46.592Z,0
2018-10-21T00:21:46.590Z,0
2018-10-21T00:22:47.110Z,0
2018-10-21T00:23:46.865Z,0
2018-10-21T00:24:46.569Z,0
2018-10-21T00:25:46.835Z,0
2018-10-21T00:26:47.073Z,0
2018-10-21T00:27:46.296Z,0
2018-10-21T00:28:46.831Z,0
2018-10-21T00:29:46.285Z,0
2018-10-21T00:30:46.817Z,0
2018-10-21T00:31:46.858Z,0
2018-10-21T00:32:46.526Z,0
2018-10-21T00:33:46.799Z,0
2018-10-21T00:34:46.532Z,0
2018-10-21T00:35:46.513Z,0
2018-10-21T00:36:46.485Z,0
2018-10-21T00:37:46.984Z,0
2018-10-21T00:38:46.226Z,0
2018-10-21T00:39:46.518Z,0
2018-10-21T00:40:46.489Z,0
2018-10-21T00:41:46.218Z,0
2018-10-21T00:42:46.471Z,0
2018-10-21T00:43:46.969Z,0
2018-10-21T00:44:46.707Z,0
2018-10-21T00:45:46.703Z,0
2018-10-21T00:46:46.764Z,0
2018-10-21T00:47:46.974Z,0
2018-10-21T00:48:46.968Z,0
2018-10-21T00:49:46.969Z,0
2018-10-21T00:50:46.434Z,0
2018-10-21T00:51:46.173Z,0
2018-10-21T00:52:46.152Z,0
2018-10-21T00:53:46.443Z,0
2018-10-21T00:54:46.174Z,0
2018-10-21T00:55:46.385Z,0
2018-10-21T00:56:46.669Z,0
2018-10-21T00:57:46.387Z,0
2018-10-21T00:58:46.887Z,0
2018-10-21T00:59:46.356Z,0
2018-10-21T01:00:46.615Z,0
2018-10-21T01:01:46.890Z,0
2018-10-21T01:02:46.367Z,0
2018-10-21T01:03:46.596Z,0
2018-10-21T01:04:46.861Z,0
2018-10-21T01:05:46.354Z,0
2018-10-21T01:06:46.587Z,0
2018-10-21T01:07:46.582Z,0
2018-10-21T01:08:46.586Z,0
2018-10-21T01:09:46.303Z,0
2018-10-21T01:10:46.561Z,0
2018-10-21T01:11:46.546Z,0
2018-10-21T01:12:46.814Z,0
2018-10-21T01:13:46.810Z,0
2018-10-21T01:14:46.530Z,0
2018-10-21T01:15:46.288Z,0
2018-10-21T01:16:46.561Z,0
2018-10-21T01:17:46.255Z,0
2018-10-21T01:18:47.078Z,0
2018-10-21T01:19:46.489Z,0
2018-10-21T01:20:46.754Z,0
2018-10-21T01:21:46.248Z,0
2018-10-21T01:22:46.481Z,0
2018-10-21T01:23:46.470Z,0
2018-10-21T01:24:46.215Z,0
2018-10-21T01:25:46.478Z,0
2018-10-21T01:26:46.454Z,0
2018-10-21T01:27:46.464Z,0
2018-10-21T01:28:46.704Z,0
2018-10-21T01:29:46.720Z,0
2018-10-21T01:30:46.174Z,0
2018-10-21T01:31:46.692Z,0
2018-10-21T01:32:46.173Z,0
2018-10-21T01:33:46.421Z,0
2018-10-21T01:34:46.449Z,0
2018-10-21T01:35:46.671Z,0
2018-10-21T01:36:47.230Z,0
2018-10-21T01:37:46.297Z,0
2018-10-21T01:38:46.930Z,0
2018-10-21T01:39:46.115Z,0
2018-10-21T01:40:46.378Z,0
2018-10-21T01:41:46.137Z,0
2018-10-21T01:42:46.641Z,0
2018-10-21T01:43:46.112Z,0
2018-10-21T01:44:46.614Z,0
2018-10-21T01:45:46.594Z,0
2018-10-21T01:46:46.607Z,0
2018-10-21T01:47:45.823Z,0
2018-10-21T01:48:47.939Z,0
2018-10-21T01:49:46.349Z,0
2018-10-21T01:50:46.611Z,0
2018-10-21T01:51:46.594Z,0
2018-10-21T01:52:46.323Z,0
2018-10-21T01:53:45.794Z,0
2018-10-21T01:54:46.042Z,0
2018-10-21T01:55:46.311Z,0
2018-10-21T01:56:45.514Z,0
2018-10-21T01:57:46.018Z,0
2018-10-21T01:58:46.355Z,0
2018-10-21T01:59:46.021Z,0
2018-10-21T02:00:46.519Z,0
2018-10-21T02:01:46.267Z,0
2018-10-21T02:02:46.522Z,0
2018-10-21T02:03:46.273Z,0
2018-10-21T02:04:45.976Z,0
2018-10-21T02:05:46.235Z,0
2018-10-21T02:06:46.491Z,0
2018-10-21T02:07:45.994Z,0
2018-10-21T02:08:45.971Z,0
2018-10-21T02:09:46.200Z,0
2018-10-21T02:10:46.196Z,0
2018-10-21T02:11:46.207Z,0
2018-10-21T02:12:46.455Z,0
2018-10-21T02:13:45.690Z,0
2018-10-21T02:14:46.192Z,0
2018-10-21T02:15:46.163Z,0
2018-10-21T02:16:46.454Z,0
2018-10-21T02:17:45.894Z,0
2018-10-21T02:18:46.318Z,0
2018-10-21T02:19:45.669Z,0
2018-10-21T02:20:45.888Z,0
2018-10-21T02:21:45.874Z,0
2018-10-21T02:22:46.122Z,0
2018-10-21T02:23:46.120Z,0
2018-10-21T02:24:46.102Z,0
2018-10-21T02:25:45.873Z,0
2018-10-21T02:26:46.252Z,0
2018-10-21T02:27:45.860Z,0
2018-10-21T02:28:46.082Z,0
2018-10-21T02:29:45.864Z,0
2018-10-21T02:30:45.838Z,0
2018-10-21T02:31:46.062Z,0
2018-10-21T02:32:46.089Z,0
2018-10-21T02:33:46.432Z,0
2018-10-21T02:34:45.800Z,0
2018-10-21T02:35:46.320Z,0
2018-10-21T02:36:46.036Z,0
2018-10-21T02:37:45.868Z,0
2018-10-21T02:38:46.041Z,0
2018-10-21T02:39:45.781Z,0
2018-10-21T02:40:46.016Z,0
2018-10-21T02:41:46.036Z,0
2018-10-21T02:42:45.740Z,0
2018-10-21T02:43:45.754Z,0
2018-10-21T02:44:45.999Z,0
2018-10-21T02:45:45.994Z,0
2018-10-21T02:46:45.470Z,0
2018-10-21T02:47:46.237Z,0
2018-10-21T02:48:46.500Z,0
2018-10-21T02:49:45.454Z,0
2018-10-21T02:50:45.961Z,0
2018-10-21T02:51:46.267Z,0
2018-10-21T02:52:46.173Z,0
2018-10-21T02:53:45.943Z,0
2018-10-21T02:54:45.933Z,0
2018-10-21T02:55:45.439Z,0
2018-10-21T02:56:46.172Z,0
2018-10-21T02:57:45.408Z,0
2018-10-21T02:58:45.387Z,0
2018-10-21T02:59:46.160Z,0
2018-10-21T03:00:45.634Z,0
2018-10-21T03:01:45.358Z,0
2018-10-21T03:02:45.866Z,0
2018-10-21T03:03:46.182Z,0
2018-10-21T03:04:45.864Z,0
2018-10-21T03:05:45.860Z,0
2018-10-21T03:06:45.857Z,0
2018-10-21T03:07:45.570Z,0
2018-10-21T03:08:46.113Z,0
2018-10-21T03:09:45.570Z,0
2018-10-21T03:10:45.817Z,0
2018-10-21T03:11:45.817Z,0
2018-10-21T03:12:45.842Z,0
2018-10-21T03:13:45.296Z,0
2018-10-21T03:14:45.800Z,0
2018-10-21T03:15:45.804Z,0
2018-10-21T03:16:45.782Z,0
2018-10-21T03:17:46.060Z,0
2018-10-21T03:18:45.819Z,0
2018-10-21T03:19:45.527Z,0
2018-10-21T03:20:45.998Z,0
2018-10-21T03:21:46.027Z,0
2018-10-21T03:22:45.745Z,0
2018-10-21T03:23:46.109Z,0
2018-10-21T03:24:45.728Z,0
2018-10-21T03:25:45.721Z,0
2018-10-21T03:26:45.761Z,0
2018-10-21T03:27:45.730Z,0
2018-10-21T03:28:45.964Z,0
2018-10-21T03:29:45.973Z,0
2018-10-21T03:30:45.994Z,0
2018-10-21T03:31:45.726Z,0
2018-10-21T03:32:46.123Z,0
2018-10-21T03:33:46.801Z,0
2018-10-21T03:34:45.947Z,0
2018-10-21T03:35:45.995Z,0
2018-10-21T03:36:45.654Z,0
2018-10-21T03:37:45.654Z,0
2018-10-21T03:38:45.640Z,0
2018-10-21T03:39:45.121Z,0
2018-10-21T03:40:45.889Z,0
2018-10-21T03:41:45.356Z,0
2018-10-21T03:42:45.609Z,0
2018-10-21T03:43:45.868Z,0
2018-10-21T03:44:45.100Z,0
2018-10-21T03:45:45.844Z,0
2018-10-21T03:46:45.568Z,0
2018-10-21T03:47:45.330Z,0
2018-10-21T03:48:45.323Z,0
2018-10-21T03:49:45.788Z,0
2018-10-21T03:50:45.058Z,0
2018-10-21T03:51:45.539Z,0
2018-10-21T03:52:45.574Z,0
2018-10-21T03:53:45.316Z,0
2018-10-21T03:54:45.543Z,0
2018-10-21T03:55:45.544Z,0
2018-10-21T03:56:45.513Z,0
2018-10-21T03:57:45.505Z,0
2018-10-21T03:58:45.247Z,0
2018-10-21T03:59:45.269Z,0
2018-10-21T04:00:45.492Z,0
2018-10-21T04:01:45.221Z,0
2018-10-21T04:02:44.983Z,0
2018-10-21T04:03:45.766Z,0
2018-10-21T04:04:45.729Z,0
2018-10-21T04:05:45.472Z,0
2018-10-21T04:06:45.201Z,0
2018-10-21T04:07:45.457Z,0
2018-10-21T04:08:45.196Z,0
2018-10-21T04:09:45.438Z,0
2018-10-21T04:10:45.182Z,0
2018-10-21T04:11:45.422Z,0
2018-10-21T04:12:45.678Z,0
2018-10-21T04:13:45.652Z,0
2018-10-21T04:14:45.429Z,0
2018-10-21T04:15:44.904Z,0
2018-10-21T04:16:44.894Z,0
2018-10-21T04:17:45.140Z,0
2018-10-21T04:18:45.113Z,0
2018-10-21T04:19:45.924Z,0
2018-10-21T04:20:45.396Z,0
2018-10-21T04:21:45.633Z,0
2018-10-21T04:22:45.084Z,0
2018-10-21T04:23:44.824Z,0
2018-10-21T04:24:44.822Z,0
2018-10-21T04:25:45.680Z,0
2018-10-21T04:26:45.327Z,0
2018-10-21T04:27:45.586Z,0
2018-10-21T04:28:45.577Z,0
2018-10-21T04:29:45.579Z,0
2018-10-21T04:30:45.571Z,0
2018-10-21T04:31:45.290Z,0
2018-10-21T04:32:45.038Z,0
2018-10-21T04:33:45.551Z,0
2018-10-21T04:34:45.034Z,0
2018-10-21T04:35:45.524Z,0
2018-10-21T04:36:45.016Z,0
2018-10-21T04:37:45.660Z,0
2018-10-21T04:38:45.266Z,0
2018-10-21T04:39:45.510Z,0
2018-10-21T04:40:45.228Z,0
2018-10-21T04:41:44.964Z,0
2018-10-21T04:42:45.215Z,0
2018-10-21T04:43:45.215Z,0
2018-10-21T04:44:45.235Z,0
2018-10-21T04:45:44.972Z,0
2018-10-21T04:46:45.027Z,0
2018-10-21T04:47:44.934Z,0
2018-10-21T04:48:44.923Z,0
2018-10-21T04:49:46.235Z,0
2018-10-21T04:50:45.001Z,0
2018-10-21T04:51:45.177Z,0
2018-10-21T04:52:44.901Z,0
2018-10-21T04:53:45.221Z,0
2018-10-21T04:54:45.419Z,0
2018-10-21T04:55:44.961Z,0
2018-10-21T04:56:44.652Z,0
2018-10-21T04:57:45.138Z,0
2018-10-21T04:58:44.895Z,0
2018-10-21T04:59:45.143Z,0
2018-10-21T05:00:45.852Z,0
2018-10-21T05:01:45.099Z,0
2018-10-21T05:02:45.363Z,0
2018-10-21T05:03:45.363Z,0
2018-10-21T05:04:45.108Z,0
2018-10-21T05:05:45.098Z,0
2018-10-21T05:06:44.826Z,0
2018-10-21T05:07:46.007Z,0
2018-10-21T05:08:44.851Z,0
2018-10-21T05:09:45.086Z,0
2018-10-21T05:10:44.799Z,0
2018-10-21T05:11:45.044Z,0
2018-10-21T05:12:45.055Z,0
2018-10-21T05:13:45.313Z,0
2018-10-21T05:14:44.777Z,0
2018-10-21T05:15:45.044Z,0
2018-10-21T05:16:45.537Z,0
2018-10-21T05:17:44.775Z,0
2018-10-21T05:18:45.020Z,0
2018-10-21T05:19:46.856Z,0
2018-10-21T05:20:44.761Z,0
2018-10-21T05:21:44.229Z,0
2018-10-21T05:22:44.739Z,0
2018-10-21T05:23:45.241Z,0
2018-10-21T05:24:45.252Z,0
2018-10-21T05:25:44.728Z,0
2018-10-21T05:26:44.712Z,0
2018-10-21T05:27:44.705Z,0
2018-10-21T05:28:44.962Z,0
2018-10-21T05:29:44.691Z,0
2018-10-21T05:30:44.496Z,0
2018-10-21T05:31:44.430Z,0
2018-10-21T05:32:44.412Z,0
2018-10-21T05:33:44.679Z,0
2018-10-21T05:34:45.177Z,0
2018-10-21T05:35:45.180Z,0
2018-10-21T05:36:44.905Z,0
2018-10-21T05:37:45.287Z,0
2018-10-21T05:38:44.910Z,0
2018-10-21T05:39:44.884Z,0
2018-10-21T05:40:45.337Z,0
2018-10-21T05:41:44.647Z,0
2018-10-21T05:42:44.895Z,0
2018-10-21T05:43:44.610Z,0
2018-10-21T05:44:45.137Z,0
2018-10-21T05:45:44.602Z,0
2018-10-21T05:46:44.716Z,0
2018-10-21T05:47:45.140Z,0
2018-10-21T05:48:44.855Z,0
2018-10-21T05:49:45.102Z,0
2018-10-21T05:50:45.900Z,0
2018-10-21T05:51:44.831Z,0
2018-10-21T05:52:44.586Z,0
2018-10-21T05:53:44.535Z,0
2018-10-21T05:54:44.547Z,0
2018-10-21T05:55:44.892Z,0
2018-10-21T05:56:44.809Z,0
2018-10-21T05:57:45.188Z,0
2018-10-21T05:58:45.043Z,0
2018-10-21T05:59:44.763Z,5
2018-10-21T06:00:44.783Z,5
2018-10-21T06:01:45.023Z,5
2018-10-21T06:02:45.097Z,5
2018-10-21T06:03:44.247Z,5
2018-10-21T06:04:44.238Z,5
2018-10-21T06:05:44.751Z,5
2018-10-21T06:06:44.734Z,10
2018-10-21T06:07:44.492Z,10
2018-10-21T06:08:44.464Z,10
2018-10-21T06:09:44.467Z,10
2018-10-21T06:10:44.496Z,10
2018-10-21T06:11:44.985Z,10
2018-10-21T06:12:44.467Z,10
2018-10-21T06:13:44.699Z,15
2018-10-21T06:14:44.691Z,15
2018-10-21T06:15:46.132Z,15
2018-10-21T06:16:44.959Z,15
2018-10-21T06:17:44.409Z,15
2018-10-21T06:18:44.658Z,20
2018-10-21T06:19:44.946Z,20
2018-10-21T06:20:48.199Z,20
2018-10-21T06:21:44.634Z,25
2018-10-21T06:22:44.907Z,25
2018-10-21T06:23:44.575Z,25
2018-10-21T06:24:44.366Z,25
2018-10-21T06:25:44.604Z,25
2018-10-21T06:26:44.194Z,25
2018-10-21T06:27:45.506Z,30
2018-10-21T06:28:44.846Z,30
2018-10-21T06:29:44.631Z,30
2018-10-21T06:30:44.863Z,30
2018-10-21T06:31:44.329Z,35
2018-10-21T06:32:44.896Z,35
2018-10-21T06:33:44.259Z,40
2018-10-21T06:34:44.559Z,40
2018-10-21T06:35:44.551Z,40
2018-10-21T06:36:44.520Z,40
2018-10-21T06:37:44.284Z,40
2018-10-21T06:38:44.263Z,45
2018-10-21T06:39:43.995Z,45
2018-10-21T06:40:44.266Z,45
2018-10-21T06:41:44.807Z,45
2018-10-21T06:42:44.124Z,45
2018-10-21T06:43:44.508Z,45
2018-10-21T06:44:44.495Z,50
2018-10-21T06:45:44.908Z,50
2018-10-21T06:46:44.745Z,50
2018-10-21T06:47:44.237Z,50
2018-10-21T06:48:44.728Z,50
2018-10-21T06:49:43.974Z,50
2018-10-21T06:50:44.466Z,50
2018-10-21T06:51:45.259Z,50
2018-10-21T06:52:44.193Z,50
2018-10-21T06:53:44.192Z,50
2018-10-21T06:54:44.185Z,50
2018-10-21T06:55:44.675Z,55
2018-10-21T06:56:45.242Z,60
2018-10-21T06:57:44.685Z,60
2018-10-21T06:58:44.399Z,60
2018-10-21T06:59:44.403Z,60
2018-10-21T07:00:44.418Z,60
2018-10-21T07:01:44.643Z,65
2018-10-21T07:02:44.393Z,65
2018-10-21T07:03:44.133Z,70
2018-10-21T07:04:45.035Z,70
2018-10-21T07:05:44.621Z,75
2018-10-21T07:06:44.351Z,75
2018-10-21T07:07:44.113Z,75
2018-10-21T07:08:44.603Z,80
2018-10-21T07:09:44.082Z,80
2018-10-21T07:10:44.635Z,85
2018-10-21T07:11:44.084Z,85
2018-10-21T07:12:44.063Z,85
2018-10-21T07:13:44.573Z,90
2018-10-21T07:14:44.081Z,90
2018-10-21T07:15:45.197Z,90
2018-10-21T07:16:44.275Z,95
2018-10-21T07:17:44.309Z,95
2018-10-21T07:18:44.559Z,95
2018-10-21T07:19:44.033Z,95
2018-10-21T07:20:44.299Z,100
2018-10-21T07:21:44.531Z,95
2018-10-21T07:22:43.743Z,95
2018-10-21T07:23:44.281Z,95
2018-10-21T07:24:44.537Z,100
2018-10-21T07:25:44.265Z,100
2018-10-21T07:26:44.251Z,105
2018-10-21T07:27:44.251Z,110
2018-10-21T07:28:45.024Z,110
2018-10-21T07:29:44.258Z,115
2018-10-21T07:30:44.482Z,110
2018-10-21T07:31:44.473Z,115
2018-10-21T07:32:43.989Z,115
2018-10-21T07:33:43.988Z,115
2018-10-21T07:34:43.965Z,115
2018-10-21T07:35:44.261Z,115
2018-10-21T07:36:43.941Z,120
2018-10-21T07:37:44.461Z,120
2018-10-21T07:38:44.465Z,120
2018-10-21T07:39:43.679Z,125
2018-10-21T07:40:43.938Z,125
2018-10-21T07:41:43.912Z,140
2018-10-21T07:42:43.920Z,130
2018-10-21T07:43:44.275Z,130
2018-10-21T07:44:43.663Z,135
2018-10-21T07:45:43.965Z,135
2018-10-21T07:46:44.429Z,135
2018-10-21T07:47:44.429Z,140
2018-10-21T07:48:44.434Z,150
2018-10-21T07:49:43.914Z,165
2018-10-21T07:50:43.935Z,150
2018-10-21T07:51:43.639Z,155
2018-10-21T07:52:45.513Z,155
2018-10-21T07:53:44.377Z,155
2018-10-21T07:54:43.612Z,160
2018-10-21T07:55:44.703Z,170
2018-10-21T07:56:44.115Z,180
2018-10-21T07:57:44.125Z,170
2018-10-21T07:58:44.387Z,190
2018-10-21T07:59:44.160Z,190
2018-10-21T08:00:44.470Z,175
2018-10-21T08:01:44.370Z,180
2018-10-21T08:02:44.118Z,175
2018-10-21T08:03:44.379Z,200
2018-10-21T08:04:44.109Z,170
2018-10-21T08:05:43.949Z,195
2018-10-21T08:06:43.742Z,195
2018-10-21T08:07:46.184Z,185
2018-10-21T08:08:43.688Z,190
2018-10-21T08:09:44.116Z,170
2018-10-21T08:10:44.188Z,180
2018-10-21T08:11:44.108Z,190
2018-10-21T08:12:43.578Z,170
2018-10-21T08:13:43.892Z,200
2018-10-21T08:14:43.889Z,200
2018-10-21T08:15:44.143Z,180
2018-10-21T08:16:43.590Z,160
2018-10-21T08:17:44.111Z,155
2018-10-21T08:18:43.608Z,170
2018-10-21T08:19:44.109Z,150
2018-10-21T08:20:44.090Z,150
2018-10-21T08:21:43.824Z,155
2018-10-21T08:22:44.411Z,160
2018-10-21T08:23:43.839Z,145
2018-10-21T08:24:43.913Z,140
2018-10-21T08:25:44.170Z,140
2018-10-21T08:26:44.069Z,135
2018-10-21T08:27:43.829Z,140
2018-10-21T08:28:44.340Z,145
2018-10-21T08:29:43.892Z,140
2018-10-21T08:30:44.098Z,150
2018-10-21T08:31:43.567Z,140
2018-10-21T08:32:44.092Z,170
2018-10-21T08:33:43.581Z,160
2018-10-21T08:34:43.557Z,170
2018-10-21T08:35:43.269Z,170
2018-10-21T08:36:44.084Z,200
2018-10-21T08:37:43.790Z,215
2018-10-21T08:38:43.817Z,180
2018-10-21T08:39:43.566Z,200
2018-10-21T08:40:44.148Z,200
2018-10-21T08:41:43.783Z,200
2018-10-21T08:42:43.553Z,195
2018-10-21T08:43:43.815Z,195
2018-10-21T08:44:43.835Z,185
2018-10-21T08:45:43.875Z,190
2018-10-21T08:46:45.138Z,180
2018-10-21T08:47:43.584Z,175
2018-10-21T08:48:44.260Z,175
2018-10-21T08:49:43.616Z,175
2018-10-21T08:50:44.028Z,180
2018-10-21T08:51:44.301Z,170
2018-10-21T08:52:43.805Z,170
2018-10-21T08:53:44.320Z,170
2018-10-21T08:54:43.543Z,175
2018-10-21T08:55:44.091Z,175
2018-10-21T08:56:44.029Z,175
2018-10-21T08:57:43.498Z,175
2018-10-21T08:58:44.265Z,180
2018-10-21T08:59:43.749Z,180
2018-10-21T09:00:44.303Z,185
2018-10-21T09:01:44.001Z,180
2018-10-21T09:02:44.022Z,215
2018-10-21T09:03:44.009Z,175
2018-10-21T09:04:43.998Z,190
2018-10-21T09:05:43.548Z,185
2018-10-21T09:06:43.532Z,180
2018-10-21T09:07:43.717Z,180
2018-10-21T09:08:44.023Z,180
2018-10-21T09:09:43.981Z,185
2018-10-21T09:10:45.304Z,200
2018-10-21T09:11:43.714Z,200
2018-10-21T09:12:43.697Z,200
2018-10-21T09:13:43.711Z,195
2018-10-21T09:14:44.008Z,195
2018-10-21T09:15:44.445Z,190
2018-10-21T09:16:44.423Z,190
2018-10-21T09:17:43.680Z,190
2018-10-21T09:18:43.743Z,190
2018-10-21T09:19:43.946Z,190
2018-10-21T09:20:43.672Z,190
2018-10-21T09:21:44.202Z,190
2018-10-21T09:22:43.938Z,190
2018-10-21T09:23:43.545Z,190
2018-10-21T09:24:43.952Z,190
2018-10-21T09:25:43.702Z,190
2018-10-21T09:26:43.695Z,190
2018-10-21T09:27:43.677Z,190
2018-10-21T09:28:43.398Z,190
2018-10-21T09:29:43.911Z,190
2018-10-21T09:30:43.980Z,190
2018-10-21T09:31:43.646Z,190
2018-10-21T09:32:43.401Z,190
2018-10-21T09:33:43.471Z,190
2018-10-21T09:34:43.391Z,190
2018-10-21T09:35:43.935Z,190
2018-10-21T09:36:43.896Z,190
2018-10-21T09:37:43.917Z,190
2018-10-21T09:38:44.165Z,190
2018-10-21T09:39:43.895Z,190
2018-10-21T09:40:43.658Z,190
2018-10-21T09:41:44.147Z,190
2018-10-21T09:42:43.378Z,190
2018-10-21T09:43:43.634Z,190
2018-10-21T09:44:43.640Z,190
2018-10-21T09:45:43.962Z,190
2018-10-21T09:46:43.910Z,190
2018-10-21T09:47:43.625Z,190
2018-10-21T09:48:43.856Z,190
2018-10-21T09:49:43.652Z,190
2018-10-21T09:50:43.639Z,190
2018-10-21T09:51:44.121Z,190
2018-10-21T09:52:43.753Z,190
2018-10-21T09:53:44.128Z,190
2018-10-21T09:54:43.588Z,190
2018-10-21T09:55:43.372Z,190
2018-10-21T09:56:44.171Z,190
2018-10-21T09:57:43.832Z,190
2018-10-21T09:58:43.489Z,190
2018-10-21T09:59:43.856Z,195
2018-10-21T10:00:43.960Z,190
2018-10-21T10:01:43.316Z,190
2018-10-21T10:02:43.847Z,190
2018-10-21T10:03:44.236Z,190
2018-10-21T10:04:43.589Z,190
2018-10-21T10:05:44.183Z,190
2018-10-21T10:06:43.377Z,190
2018-10-21T10:07:43.591Z,190
2018-10-21T10:08:43.856Z,190
2018-10-21T10:09:43.831Z,190
2018-10-21T10:10:43.916Z,190
2018-10-21T10:11:43.291Z,190
2018-10-21T10:12:43.811Z,195
2018-10-21T10:13:43.569Z,195
2018-10-21T10:14:44.105Z,195
2018-10-21T10:15:43.598Z,195
2018-10-21T10:16:43.548Z,195
2018-10-21T10:17:44.209Z,195
2018-10-21T10:18:43.822Z,190
2018-10-21T10:19:43.856Z,190
2018-10-21T10:20:43.581Z,190
2018-10-21T10:21:44.028Z,190
2018-10-21T10:22:44.901Z,190
2018-10-21T10:23:44.318Z,190
2018-10-21T10:24:43.023Z,190
2018-10-21T10:25:43.863Z,190
2018-10-21T10:26:43.533Z,190
2018-10-21T10:27:43.792Z,185
2018-10-21T10:28:43.784Z,190
2018-10-21T10:29:43.818Z,190
2018-10-21T10:30:43.830Z,195
2018-10-21T10:31:44.040Z,190
2018-10-21T10:32:43.554Z,185
2018-10-21T10:33:43.844Z,185
2018-10-21T10:34:43.785Z,185
2018-10-21T10:35:43.608Z,175
2018-10-21T10:36:43.256Z,185
2018-10-21T10:37:43.806Z,185
2018-10-21T10:38:43.296Z,185
2018-10-21T10:39:44.003Z,185
2018-10-21T10:40:43.867Z,180
2018-10-21T10:41:43.798Z,180
2018-10-21T10:42:43.751Z,185
2018-10-21T10:43:43.501Z,180
2018-10-21T10:44:43.288Z,180
2018-10-21T10:45:43.308Z,180
2018-10-21T10:46:43.494Z,180
2018-10-21T10:47:43.787Z,180
2018-10-21T10:48:43.491Z,180
2018-10-21T10:49:43.738Z,180
2018-10-21T10:50:43.560Z,180
2018-10-21T10:51:43.480Z,180
2018-10-21T10:52:44.547Z,180
2018-10-21T10:53:44.006Z,180
2018-10-21T10:54:43.470Z,180
2018-10-21T10:55:44.083Z,175
2018-10-21T10:56:43.747Z,175
2018-10-21T10:57:43.727Z,175
2018-10-21T10:58:43.467Z,175
2018-10-21T10:59:44.434Z,175
2018-10-21T11:00:43.311Z,175
2018-10-21T11:01:43.793Z,180
2018-10-21T11:02:43.260Z,175
2018-10-21T11:03:43.483Z,170
2018-10-21T11:04:43.212Z,170
2018-10-21T11:05:43.763Z,175
2018-10-21T11:06:43.475Z,175
2018-10-21T11:07:43.984Z,175
2018-10-21T11:08:43.192Z,175
2018-10-21T11:09:42.944Z,170
2018-10-21T11:10:43.736Z,170
2018-10-21T11:11:43.720Z,170
2018-10-21T11:12:44.022Z,170
2018-10-21T11:13:43.710Z,170
2018-10-21T11:14:44.020Z,170
2018-10-21T11:15:43.481Z,170
2018-10-21T11:16:43.725Z,170
2018-10-21T11:17:42.938Z,170
2018-10-21T11:18:43.480Z,170
2018-10-21T11:19:43.696Z,170
2018-10-21T11:20:43.491Z,170
2018-10-21T11:21:44.239Z,170
2018-10-21T11:22:44.424Z,165
2018-10-21T11:23:49.675Z,165
2018-10-21T11:24:43.526Z,165
2018-10-21T11:25:46.309Z,165
2018-10-21T11:26:44.179Z,165
2018-10-21T11:27:43.717Z,165
2018-10-21T11:28:43.508Z,165
2018-10-21T11:29:44.197Z,165
2018-10-21T11:30:43.260Z,165
2018-10-21T11:31:43.492Z,165
2018-10-21T11:32:44.034Z,165
2018-10-21T11:33:44.257Z,165
2018-10-21T11:34:44.639Z,165
2018-10-21T11:35:44.416Z,165
2018-10-21T11:36:43.954Z,165
2018-10-21T11:37:44.091Z,165
2018-10-21T11:38:44.351Z,165
2018-10-21T11:39:43.235Z,165
2018-10-21T11:40:44.709Z,165
2018-10-21T11:41:43.448Z,165
2018-10-21T11:42:43.664Z,165
2018-10-21T11:43:43.559Z,160
2018-10-21T11:44:44.089Z,160
2018-10-21T11:45:43.979Z,160
2018-10-21T11:46:43.705Z,165
2018-10-21T11:47:43.938Z,165
2018-10-21T11:48:44.620Z,165
2018-10-21T11:49:43.356Z,170
2018-10-21T11:50:43.789Z,165
2018-10-21T11:51:43.266Z,170
2018-10-21T11:52:43.199Z,160
2018-10-21T11:53:45.080Z,160
2018-10-21T11:54:43.308Z,160
2018-10-21T11:55:44.114Z,160
2018-10-21T11:56:44.089Z,160
2018-10-21T11:57:43.510Z,160
2018-10-21T11:58:44.770Z,160
2018-10-21T11:59:43.576Z,160
2018-10-21T12:00:43.831Z,160
2018-10-21T12:01:43.077Z,160
2018-10-21T12:02:44.236Z,160
2018-10-21T12:03:43.444Z,160
2018-10-21T12:04:43.382Z,160
2018-10-21T12:05:43.642Z,160
2018-10-21T12:06:43.994Z,160
2018-10-21T12:07:43.928Z,160
2018-10-21T12:08:43.363Z,160
2018-10-21T12:09:44.075Z,160
2018-10-21T12:10:44.104Z,160
2018-10-21T12:11:44.177Z,160
2018-10-21T12:12:44.057Z,160
2018-10-21T12:13:43.704Z,160
2018-10-21T12:14:43.417Z,160
2018-10-21T12:15:44.489Z,160
2018-10-21T12:16:43.719Z,155
2018-10-21T12:17:43.631Z,155
2018-10-21T12:18:44.058Z,155
2018-10-21T12:19:44.147Z,155
2018-10-21T12:20:44.055Z,155
2018-10-21T12:21:43.421Z,155
2018-10-21T12:22:44.495Z,155
2018-10-21T12:23:43.772Z,155
2018-10-21T12:24:44.691Z,155
2018-10-21T12:25:44.960Z,155
2018-10-21T12:26:43.401Z,155
2018-10-21T12:27:43.858Z,155
2018-10-21T12:28:43.980Z,155
2018-10-21T12:29:43.458Z,155
2018-10-21T12:30:43.773Z,155
2018-10-21T12:31:44.085Z,155
2018-10-21T12:32:43.535Z,155
2018-10-21T12:33:43.680Z,150
2018-10-21T12:34:43.786Z,150
2018-10-21T12:35:43.782Z,150
2018-10-21T12:36:43.633Z,150
2018-10-21T12:37:44.314Z,150
2018-10-21T12:38:43.077Z,150
2018-10-21T12:39:43.408Z,150
2018-10-21T12:40:43.711Z,150
2018-10-21T12:41:43.313Z,150
2018-10-21T12:42:43.395Z,150
2018-10-21T12:43:43.412Z,150
2018-10-21T12:44:43.506Z,150
2018-10-21T12:45:43.511Z,150
2018-10-21T12:46:43.643Z,150
2018-10-21T12:47:44.348Z,150
2018-10-21T12:48:43.928Z,150
2018-10-21T12:49:43.726Z,150
2018-10-21T12:50:43.701Z,145
2018-10-21T12:51:43.272Z,145
2018-10-21T12:52:43.558Z,145
2018-10-21T12:53:43.965Z,145
2018-10-21T12:54:44.900Z,145
2018-10-21T12:55:43.955Z,145
2018-10-21T12:56:43.714Z,145
2018-10-21T12:57:43.954Z,145
2018-10-21T12:58:43.645Z,145
2018-10-21T12:59:43.727Z,145
2018-10-21T13:00:43.657Z,145
2018-10-21T13:01:43.958Z,145
2018-10-21T13:02:43.994Z,150
2018-10-21T13:03:43.387Z,145
2018-10-21T13:04:43.743Z,145
2018-10-21T13:05:43.823Z,150
2018-10-21T13:06:43.642Z,145
2018-10-21T13:07:43.638Z,145
2018-10-21T13:08:43.402Z,145
2018-10-21T13:09:44.424Z,145
2018-10-21T13:10:43.025Z,145
2018-10-21T13:11:43.688Z,145
2018-10-21T13:12:44.478Z,145
2018-10-21T13:13:43.711Z,145
2018-10-21T13:14:43.320Z,145
2018-10-21T13:15:43.719Z,145
2018-10-21T13:16:43.723Z,145
2018-10-21T13:17:43.504Z,145
2018-10-21T13:18:43.334Z,145
2018-10-21T13:19:43.778Z,145
2018-10-21T13:20:43.742Z,145
2018-10-21T13:21:43.626Z,140
2018-10-21T13:22:43.077Z,140
2018-10-21T13:23:43.923Z,140
2018-10-21T13:24:44.736Z,140
2018-10-21T13:25:43.199Z,140
2018-10-21T13:26:43.893Z,140
2018-10-21T13:27:43.632Z,140
2018-10-21T13:28:43.498Z,140
2018-10-21T13:29:43.410Z,140
2018-10-21T13:30:43.418Z,140
2018-10-21T13:31:43.110Z,140
2018-10-21T13:32:43.367Z,140
2018-10-21T13:33:43.421Z,140
2018-10-21T13:34:44.298Z,140
2018-10-21T13:35:43.423Z,135
2018-10-21T13:36:43.613Z,135
2018-10-21T13:37:43.622Z,135
2018-10-21T13:38:43.381Z,135
2018-10-21T13:39:43.637Z,135
2018-10-21T13:40:44.168Z,135
2018-10-21T13:41:43.866Z,135
2018-10-21T13:42:43.872Z,135
2018-10-21T13:43:43.473Z,135
2018-10-21T13:44:43.616Z,135
2018-10-21T13:45:43.499Z,135
2018-10-21T13:46:43.105Z,130
2018-10-21T13:47:43.351Z,130
2018-10-21T13:48:43.640Z,135
2018-10-21T13:49:43.356Z,130
2018-10-21T13:50:43.172Z,130
2018-10-21T13:51:44.076Z,130
2018-10-21T13:52:44.158Z,130
2018-10-21T13:53:43.819Z,130
2018-10-21T13:54:43.613Z,130
2018-10-21T13:55:43.543Z,130
2018-10-21T13:56:43.879Z,130
2018-10-21T13:57:43.619Z,125
2018-10-21T13:58:43.087Z,125
2018-10-21T13:59:43.614Z,125
2018-10-21T14:00:44.235Z,125
2018-10-21T14:01:43.615Z,125
2018-10-21T14:02:43.356Z,125
2018-10-21T14:03:43.093Z,125
2018-10-21T14:04:43.355Z,125
2018-10-21T14:05:43.389Z,125
2018-10-21T14:06:44.053Z,130
2018-10-21T14:07:43.614Z,120
2018-10-21T14:08:43.625Z,120
2018-10-21T14:09:43.882Z,120
2018-10-21T14:10:45.243Z,120
2018-10-21T14:11:43.918Z,120
2018-10-21T14:12:43.438Z,120
2018-10-21T14:13:43.607Z,120